createdAt,value
2022-10-21T00:01:33.149Z,22.00
2022-10-21T00:04:02.224Z,20.77
2022-10-21T00:06:29.114Z,20.73
2022-10-21T00:08:56.156Z,22.05
2022-10-21T00:11:46.582Z,19.95
2022-10-21T00:14:13.105Z,21.83
2022-10-21T00:16:39.785Z,21.40
2022-10-21T00:19:06.322Z,20.42
2022-10-21T00:21:33.414Z,20.60
2022-10-21T00:24:00.099Z,20.50
2022-10-21T00:26:26.663Z,20.20
2022-10-21T00:28:57.409Z,20.90
2022-10-21T00:31:24.956Z,21.13
2022-10-21T00:33:51.657Z,20.95
2022-10-21T00:36:18.758Z,19.98
2022-10-21T00:38:48.419Z,19.58
2022-10-21T00:41:17.658Z,20.70
2022-10-21T00:44:06.485Z,18.92
2022-10-21T00:46:57.954Z,20.05
2022-10-21T00:49:44.919Z,19.83
2022-10-21T00:52:22.034Z,20.75
2022-10-21T00:54:55.476Z,19.92
2022-10-21T00:57:23.635Z,20.60
2022-10-21T00:59:57.753Z,21.67
2022-10-21T01:02:24.483Z,21.90
2022-10-21T01:04:53.782Z,20.52
2022-10-21T01:07:20.583Z,22.55
2022-10-21T01:09:47.146Z,22.58
2022-10-21T01:12:51.919Z,20.58
2022-10-21T01:15:25.874Z,23.38
2022-10-21T01:18:06.413Z,22.30
2022-10-21T01:20:44.834Z,23.70
2022-10-21T01:23:26.817Z,24.50
2022-10-21T01:25:59.838Z,25.20
2022-10-21T01:28:45.368Z,25.67
2022-10-21T01:31:27.779Z,23.95
2022-10-21T01:34:12.157Z,22.95
2022-10-21T01:36:55.500Z,22.67
2022-10-21T01:39:29.023Z,24.13
2022-10-21T01:42:03.648Z,23.38
2022-10-21T01:44:40.890Z,24.75
2022-10-21T01:47:16.588Z,24.42
2022-10-21T01:49:51.639Z,25.05
2022-10-21T01:52:18.562Z,24.10
2022-10-21T01:54:50.253Z,24.15
2022-10-21T01:57:20.945Z,23.73
2022-10-21T01:59:48.185Z,22.75
2022-10-21T02:02:16.185Z,24.17
2022-10-21T02:04:45.914Z,23.10
2022-10-21T02:07:12.504Z,23.38
2022-10-21T02:09:39.075Z,25.42
2022-10-21T02:12:07.583Z,27.13
2022-10-21T02:14:42.186Z,27.00
2022-10-21T02:17:12.893Z,27.38
2022-10-21T02:19:39.832Z,27.33
2022-10-21T02:22:09.701Z,26.17
2022-10-21T02:24:44.395Z,26.17
2022-10-21T02:27:11.332Z,25.25
2022-10-21T02:29:40.747Z,24.88
2022-10-21T02:32:22.663Z,24.13
2022-10-21T02:34:55.488Z,24.67
2022-10-21T02:37:47.050Z,23.92
2022-10-21T02:40:19.990Z,25.17
2022-10-21T02:42:52.529Z,25.08
2022-10-21T02:45:19.320Z,23.50
2022-10-21T02:47:48.504Z,23.65
2022-10-21T02:50:15.435Z,22.25
2022-10-21T02:52:42.144Z,22.85
2022-10-21T02:55:09.171Z,22.17
2022-10-21T02:57:36.229Z,22.55
2022-10-21T03:00:05.384Z,20.75
2022-10-21T03:02:32.079Z,23.10
2022-10-21T03:04:58.987Z,22.65
2022-10-21T03:07:25.574Z,22.60
2022-10-21T03:09:52.117Z,21.90
2022-10-21T03:12:18.728Z,20.95
2022-10-21T03:14:45.446Z,22.40
2022-10-21T03:17:12.080Z,20.95
2022-10-21T03:19:38.653Z,20.67
2022-10-21T03:22:05.262Z,20.20
2022-10-21T03:24:31.852Z,20.65
2022-10-21T03:26:58.472Z,21.67
2022-10-21T03:29:25.061Z,22.48
2022-10-21T03:31:51.667Z,20.83
2022-10-21T03:34:18.402Z,23.10
2022-10-21T03:36:45.010Z,24.08
2022-10-21T03:39:12.769Z,23.42
2022-10-21T03:41:39.739Z,23.58
2022-10-21T03:44:06.281Z,24.27
2022-10-21T03:46:32.958Z,23.40
2022-10-21T03:49:04.447Z,23.52
2022-10-21T03:51:33.378Z,24.27
2022-10-21T03:53:59.940Z,24.48
2022-10-21T03:56:26.617Z,23.65
2022-10-21T03:58:57.757Z,24.25
2022-10-21T04:01:25.782Z,25.73
2022-10-21T04:03:52.495Z,25.92
2022-10-21T04:06:19.025Z,25.85
2022-10-21T04:08:45.589Z,27.42
2022-10-21T04:11:12.171Z,28.27
2022-10-21T04:13:38.850Z,28.80
2022-10-21T04:16:08.320Z,28.88
2022-10-21T04:18:34.970Z,29.05
2022-10-21T04:21:01.560Z,29.90
2022-10-21T04:23:28.108Z,29.38
2022-10-21T04:25:54.698Z,29.27
2022-10-21T04:28:21.482Z,28.77
2022-10-21T04:30:49.793Z,30.23
2022-10-21T04:33:16.734Z,27.50
2022-10-21T04:35:43.450Z,28.70
2022-10-21T04:38:10.168Z,28.52
2022-10-21T04:40:37.114Z,28.83
2022-10-21T04:43:04.178Z,30.55
2022-10-21T04:45:31.053Z,28.83
2022-10-21T04:47:57.888Z,28.55
2022-10-21T04:50:24.579Z,28.70
2022-10-21T04:52:51.694Z,27.92
2022-10-21T04:55:18.390Z,27.58
2022-10-21T04:57:45.063Z,28.15
2022-10-21T05:00:12.552Z,27.67
2022-10-21T05:02:39.495Z,27.83
2022-10-21T05:05:06.627Z,28.60
2022-10-21T05:07:33.350Z,27.38
2022-10-21T05:09:59.991Z,27.70
2022-10-21T05:12:26.585Z,27.40
2022-10-21T05:14:53.195Z,29.10
2022-10-21T05:17:19.728Z,28.33
2022-10-21T05:19:46.367Z,27.23
2022-10-21T05:22:12.930Z,26.52
2022-10-21T05:24:39.859Z,27.40
2022-10-21T05:27:06.419Z,27.90
2022-10-21T05:29:33.146Z,27.90
2022-10-21T05:31:59.943Z,27.65
2022-10-21T05:34:26.512Z,27.35
2022-10-21T05:36:53.089Z,27.63
2022-10-21T05:39:19.619Z,23.67
2022-10-21T05:41:47.994Z,25.45
2022-10-21T05:44:15.336Z,24.90
2022-10-21T05:46:41.882Z,25.45
2022-10-21T05:49:08.623Z,25.13
2022-10-21T05:51:35.303Z,25.75
2022-10-21T05:54:04.001Z,25.27
2022-10-21T05:56:30.855Z,27.53
2022-10-21T05:58:57.549Z,26.50
2022-10-21T06:01:24.134Z,27.88
2022-10-21T06:03:50.820Z,26.88
2022-10-21T06:06:17.656Z,27.15
2022-10-21T06:08:44.373Z,27.95
2022-10-21T06:11:14.452Z,26.23
2022-10-21T06:13:41.515Z,26.63
2022-10-21T06:16:09.660Z,26.15
2022-10-21T06:18:36.674Z,26.63
2022-10-21T06:21:04.008Z,26.60
2022-10-21T06:23:30.685Z,26.63
2022-10-21T06:26:00.246Z,26.67
2022-10-21T06:30:54.498Z,23.75
2022-10-21T06:33:26.101Z,24.73
2022-10-21T06:35:54.705Z,23.55
2022-10-21T06:38:21.504Z,22.15
2022-10-21T06:40:48.839Z,23.98
2022-10-21T06:43:16.298Z,23.77
2022-10-21T06:45:42.912Z,23.55
2022-10-21T06:48:09.973Z,24.55
2022-10-21T06:50:40.053Z,24.48
2022-10-21T06:53:06.656Z,23.63
2022-10-21T06:55:33.295Z,23.13
2022-10-21T06:58:00.096Z,23.80
2022-10-21T07:00:27.137Z,22.48
2022-10-21T07:02:53.733Z,23.80
2022-10-21T07:05:20.325Z,23.58
2022-10-21T07:07:46.864Z,23.77
2022-10-21T07:10:13.469Z,23.45
2022-10-21T07:12:40.034Z,23.70
2022-10-21T07:15:06.999Z,23.90
2022-10-21T07:17:33.947Z,23.17
2022-10-21T07:20:00.575Z,22.77
2022-10-21T07:22:27.157Z,22.77
2022-10-21T07:24:53.774Z,22.33
2022-10-21T07:27:20.436Z,23.27
2022-10-21T07:29:47.030Z,22.95
2022-10-21T07:32:13.548Z,20.85
2022-10-21T07:34:40.176Z,21.75
2022-10-21T07:37:06.840Z,23.17
2022-10-21T07:39:34.987Z,21.73
2022-10-21T07:42:01.734Z,21.50
2022-10-21T07:44:28.397Z,20.10
2022-10-21T07:46:55.945Z,18.80
2022-10-21T07:49:23.450Z,19.60
2022-10-21T07:51:50.486Z,18.67
2022-10-21T07:54:18.488Z,18.13
2022-10-21T07:56:47.972Z,17.40
2022-10-21T08:01:44.569Z,17.10
2022-10-21T08:04:14.167Z,16.27
2022-10-21T08:06:41.221Z,15.75
2022-10-21T08:09:07.934Z,15.23
2022-10-21T08:11:34.732Z,16.42
2022-10-21T08:14:03.142Z,14.38
2022-10-21T08:16:29.723Z,13.63
2022-10-21T08:18:59.053Z,14.10
2022-10-21T08:21:25.647Z,14.15
2022-10-21T08:23:52.331Z,12.73
2022-10-21T08:26:19.241Z,12.73
2022-10-21T08:28:46.002Z,12.23
2022-10-21T08:31:19.298Z,13.02
2022-10-21T08:33:46.543Z,13.40
2022-10-21T08:36:24.973Z,13.27
2022-10-21T08:38:52.513Z,12.32
2022-10-21T08:41:31.491Z,12.57
2022-10-21T08:44:29.378Z,12.48
2022-10-21T08:47:05.168Z,12.57
2022-10-21T08:50:04.575Z,12.90
2022-10-21T08:55:05.121Z,12.18
2022-10-21T08:57:34.646Z,12.70
2022-10-21T09:02:53.373Z,10.48
2022-10-21T09:06:02.857Z,11.77
2022-10-21T09:11:29.862Z,11.10
2022-10-21T09:14:20.808Z,10.48
2022-10-21T09:17:14.923Z,11.70
2022-10-21T09:20:00.118Z,11.88
2022-10-21T09:22:35.625Z,10.85
2022-10-21T09:25:19.899Z,11.32
2022-10-21T09:28:02.602Z,11.60
2022-10-21T09:30:29.416Z,11.20
2022-10-21T09:33:00.275Z,10.32
2022-10-21T09:35:52.656Z,11.27
2022-10-21T09:38:31.134Z,10.35
2022-10-21T09:41:01.331Z,10.65
2022-10-21T09:43:27.976Z,9.73
2022-10-21T09:45:54.669Z,10.40
2022-10-21T09:48:50.232Z,9.88
2022-10-21T09:51:29.279Z,10.07
2022-10-21T09:53:58.741Z,10.05
2022-10-21T09:56:30.842Z,9.95
2022-10-21T09:59:11.490Z,10.60
2022-10-21T10:01:39.825Z,10.27
2022-10-21T10:04:12.321Z,10.10
2022-10-21T10:06:43.905Z,9.45
2022-10-21T10:09:16.575Z,10.10
2022-10-21T10:11:54.102Z,10.48
2022-10-21T10:14:25.494Z,10.45
2022-10-21T10:16:52.124Z,9.65
2022-10-21T10:19:22.291Z,9.88
2022-10-21T10:22:10.464Z,9.98
2022-10-21T10:24:40.440Z,9.77
2022-10-21T10:27:20.784Z,9.95
2022-10-21T10:29:56.254Z,9.50
2022-10-21T10:32:25.943Z,9.73
2022-10-21T10:34:55.738Z,8.95
2022-10-21T10:37:27.766Z,9.02
2022-10-21T10:39:58.969Z,8.57
2022-10-21T10:42:29.232Z,8.43
2022-10-21T10:45:00.493Z,8.25
2022-10-21T10:47:42.804Z,8.15
2022-10-21T10:50:46.935Z,7.65
2022-10-21T10:53:27.382Z,7.25
2022-10-21T10:56:22.939Z,7.38
2022-10-21T10:59:16.834Z,6.95
2022-10-21T11:01:55.846Z,7.53
2022-10-21T11:05:04.207Z,6.78
2022-10-21T11:07:35.946Z,8.07
2022-10-21T11:10:34.117Z,7.15
2022-10-21T11:13:02.262Z,6.57
2022-10-21T11:15:44.061Z,6.88
2022-10-21T11:18:24.556Z,7.15
2022-10-21T11:21:33.698Z,7.50
2022-10-21T11:24:19.215Z,7.75
2022-10-21T11:26:51.655Z,6.93
2022-10-21T11:29:35.403Z,7.82
2022-10-21T11:32:29.963Z,7.20
2022-10-21T11:35:02.934Z,7.45
2022-10-21T11:37:57.680Z,7.95
2022-10-21T11:40:46.480Z,6.70
2022-10-21T11:43:22.179Z,7.82
2022-10-21T11:45:54.930Z,7.43
2022-10-21T11:48:44.104Z,7.97
2022-10-21T11:51:37.828Z,7.05
2022-10-21T11:54:11.831Z,7.40
2022-10-21T11:57:05.892Z,7.90
2022-10-21T11:59:52.425Z,8.88
2022-10-21T12:02:27.603Z,9.30
2022-10-21T12:05:12.720Z,8.82
2022-10-21T12:07:48.275Z,8.05
2022-10-21T12:10:14.774Z,7.72
2022-10-21T12:12:46.354Z,5.90
2022-10-21T12:15:25.629Z,6.50
2022-10-21T12:17:53.428Z,5.68
2022-10-21T12:20:27.033Z,5.50
2022-10-21T12:23:05.253Z,5.32
2022-10-21T12:25:41.113Z,4.70
2022-10-21T12:28:16.444Z,4.18
2022-10-21T12:30:50.774Z,4.35
2022-10-21T12:33:28.482Z,4.13
2022-10-21T12:36:11.488Z,4.00
2022-10-21T12:38:49.089Z,3.25
2022-10-21T12:41:24.910Z,3.78
2022-10-21T12:44:03.726Z,2.90
2022-10-21T12:46:49.583Z,3.30
2022-10-21T12:49:33.856Z,3.60
2022-10-21T12:52:10.240Z,3.67
2022-10-21T12:54:44.166Z,3.65
2022-10-21T12:57:24.050Z,4.07
2022-10-21T12:59:50.760Z,4.00
2022-10-21T13:02:24.632Z,3.83
2022-10-21T13:04:53.969Z,3.83
2022-10-21T13:07:30.150Z,3.47
2022-10-21T13:09:59.812Z,3.55
2022-10-21T13:12:29.767Z,3.53
2022-10-21T13:14:58.852Z,3.53
2022-10-21T13:17:54.335Z,3.88
2022-10-21T13:20:20.880Z,4.10
2022-10-21T13:22:49.528Z,4.78
2022-10-21T13:25:16.063Z,4.83
2022-10-21T13:27:52.509Z,5.63
2022-10-21T13:30:31.342Z,5.28
2022-10-21T13:33:04.199Z,4.32
2022-10-21T13:35:53.434Z,3.75
2022-10-21T13:38:33.780Z,3.95
2022-10-21T13:41:04.378Z,3.90
2022-10-21T13:43:48.070Z,5.22
2022-10-21T13:46:18.423Z,4.05
2022-10-21T13:48:47.899Z,3.50
2022-10-21T13:53:45.959Z,4.38
2022-10-21T13:56:25.323Z,3.88
2022-10-21T14:01:22.488Z,3.92
2022-10-21T14:03:50.207Z,3.00
2022-10-21T14:06:37.124Z,3.72
2022-10-21T14:09:08.186Z,3.15
2022-10-21T14:11:43.400Z,2.65
2022-10-21T14:14:14.982Z,3.15
2022-10-21T14:16:47.722Z,2.53
2022-10-21T14:19:21.866Z,3.08
2022-10-21T14:21:52.477Z,2.70
2022-10-21T14:24:44.638Z,2.55
2022-10-21T14:27:34.865Z,2.40
2022-10-21T14:30:04.286Z,2.10
2022-10-21T14:35:10.113Z,2.53
2022-10-21T14:37:46.342Z,2.80
2022-10-21T14:40:19.182Z,3.00
2022-10-21T14:42:49.750Z,2.30
2022-10-21T14:45:32.229Z,2.25
2022-10-21T14:48:32.308Z,2.17
2022-10-21T14:51:17.634Z,2.42
2022-10-21T14:53:52.554Z,2.53
2022-10-21T14:56:22.887Z,2.10
2022-10-21T14:58:57.207Z,2.25
2022-10-21T15:01:25.056Z,2.50
2022-10-21T15:03:57.486Z,2.72
2022-10-21T15:06:28.999Z,2.40
2022-10-21T15:09:15.746Z,3.20
2022-10-21T15:11:47.022Z,2.58
2022-10-21T15:14:13.682Z,3.65
2022-10-21T15:16:56.713Z,3.47
2022-10-21T15:19:34.110Z,3.15
2022-10-21T15:22:02.126Z,3.00
2022-10-21T15:24:43.009Z,2.90
2022-10-21T15:27:42.361Z,3.05
2022-10-21T15:30:21.677Z,2.95
2022-10-21T15:32:49.477Z,2.58
2022-10-21T15:35:18.791Z,2.72
2022-10-21T15:37:49.623Z,4.03
2022-10-21T15:40:18.475Z,3.20
2022-10-21T15:42:46.382Z,4.05
2022-10-21T15:45:16.489Z,2.92
2022-10-21T15:47:43.197Z,3.90
2022-10-21T15:50:14.831Z,3.75
2022-10-21T15:52:41.425Z,3.47
2022-10-21T15:55:10.339Z,3.45
2022-10-21T15:57:38.800Z,3.50
2022-10-21T16:00:22.702Z,3.40
2022-10-21T16:02:51.670Z,3.13
2022-10-21T16:05:18.687Z,3.70
2022-10-21T16:07:45.885Z,3.25
2022-10-21T16:10:29.451Z,3.30
2022-10-21T16:12:57.438Z,3.95
2022-10-21T16:15:24.668Z,3.70
2022-10-21T16:17:54.053Z,3.67
2022-10-21T16:25:17.152Z,3.55
2022-10-21T16:27:55.676Z,4.28
2022-10-21T16:30:26.199Z,4.18
2022-10-21T16:32:52.969Z,3.55
2022-10-21T16:35:20.697Z,4.90
2022-10-21T16:37:47.997Z,4.90
2022-10-21T16:40:22.424Z,4.90
2022-10-21T16:42:50.308Z,4.95
2022-10-21T16:45:18.511Z,5.82
2022-10-21T16:47:56.472Z,5.75
2022-10-21T16:50:27.206Z,5.50
2022-10-21T16:52:53.795Z,5.35
2022-10-21T16:55:23.233Z,6.07
2022-10-21T16:57:49.823Z,6.88
2022-10-21T17:00:17.941Z,8.15
2022-10-21T17:02:48.348Z,8.05
2022-10-21T17:05:15.465Z,8.07
2022-10-21T17:07:42.404Z,8.48
2022-10-21T17:10:09.932Z,8.73
2022-10-21T17:12:36.622Z,7.97
2022-10-21T17:15:03.751Z,8.23
2022-10-21T17:17:31.095Z,7.45
2022-10-21T17:19:57.752Z,7.00
2022-10-21T17:22:24.350Z,6.95
2022-10-21T17:24:51.051Z,6.47
2022-10-21T17:27:19.641Z,5.57
2022-10-21T17:29:46.831Z,5.15
2022-10-21T17:32:13.711Z,5.68
2022-10-21T17:34:41.145Z,5.47
2022-10-21T17:37:09.084Z,6.28
2022-10-21T17:39:35.775Z,6.50
2022-10-21T17:42:02.493Z,6.32
2022-10-21T17:44:29.216Z,7.78
2022-10-21T17:46:55.937Z,7.80
2022-10-21T17:49:24.797Z,7.55
2022-10-21T17:51:52.048Z,6.95
2022-10-21T17:54:22.850Z,7.00
2022-10-21T17:56:53.452Z,6.75
2022-10-21T17:59:22.783Z,6.65
2022-10-21T18:01:49.419Z,6.30
2022-10-21T18:04:16.366Z,5.57
2022-10-21T18:06:43.057Z,6.15
2022-10-21T18:09:09.713Z,6.50
2022-10-21T18:11:37.058Z,5.28
2022-10-21T18:14:04.278Z,6.47
2022-10-21T18:16:31.098Z,6.07
2022-10-21T18:19:03.208Z,5.80
2022-10-21T18:21:30.932Z,6.38
2022-10-21T18:23:57.957Z,6.50
2022-10-21T18:26:27.172Z,6.00
2022-10-21T18:28:59.860Z,7.18
2022-10-21T18:31:32.828Z,6.90
2022-10-21T18:34:01.482Z,8.73
2022-10-21T18:36:28.049Z,8.30
2022-10-21T18:38:54.896Z,8.00
2022-10-21T18:41:21.983Z,7.00
2022-10-21T18:44:15.133Z,6.90
2022-10-21T18:46:42.819Z,6.10
2022-10-21T18:49:13.970Z,6.50
2022-10-21T18:51:40.951Z,7.13
2022-10-21T18:54:07.825Z,6.53
2022-10-21T18:56:34.539Z,7.03
2022-10-21T18:59:01.259Z,6.43
2022-10-21T19:01:30.105Z,6.68
2022-10-21T19:03:56.691Z,6.38
2022-10-21T19:06:37.227Z,6.57
2022-10-21T19:09:19.181Z,7.05
2022-10-21T19:11:49.389Z,5.97
2022-10-21T19:14:16.546Z,6.65
2022-10-21T19:16:44.570Z,7.35
2022-10-21T19:19:11.321Z,8.52
2022-10-21T19:21:38.307Z,9.10
2022-10-21T19:24:05.369Z,9.35
2022-10-21T19:26:34.409Z,9.40
2022-10-21T19:29:10.867Z,9.02
2022-10-21T19:31:38.602Z,8.57
2022-10-21T19:34:06.500Z,9.15
2022-10-21T19:36:33.708Z,9.23
2022-10-21T19:39:00.176Z,8.35
2022-10-21T19:41:26.725Z,9.05
2022-10-21T19:43:58.395Z,8.45
2022-10-21T19:46:27.658Z,9.20
2022-10-21T19:48:54.405Z,11.13
2022-10-21T19:51:23.158Z,11.48
2022-10-21T19:53:51.781Z,11.75
2022-10-21T19:56:22.340Z,12.27
2022-10-21T19:58:54.067Z,13.05
2022-10-21T20:01:24.204Z,11.80
2022-10-21T20:03:52.621Z,12.02
2022-10-21T20:06:29.215Z,11.55
2022-10-21T20:09:01.707Z,11.60
2022-10-21T20:11:29.355Z,10.52
2022-10-21T20:13:56.601Z,11.77
2022-10-21T20:16:26.654Z,11.00
2022-10-21T20:18:55.163Z,11.18
2022-10-21T20:21:23.096Z,10.00
2022-10-21T20:23:50.139Z,10.13
2022-10-21T20:26:16.759Z,10.00
2022-10-21T20:28:43.455Z,9.68
2022-10-21T20:31:13.512Z,8.90
2022-10-21T20:33:43.255Z,8.73
2022-10-21T20:36:16.676Z,7.95
2022-10-21T20:38:44.128Z,8.88
2022-10-21T20:41:13.340Z,8.77
2022-10-21T20:43:41.901Z,9.18
2022-10-21T20:46:11.775Z,9.63
2022-10-21T20:48:48.066Z,8.77
2022-10-21T20:51:17.937Z,9.98
2022-10-21T20:53:50.005Z,10.32
2022-10-21T20:56:16.646Z,11.18
2022-10-21T20:58:43.392Z,10.68
2022-10-21T21:01:17.782Z,10.43
2022-10-21T21:03:45.583Z,10.80
2022-10-21T21:06:12.841Z,9.88
2022-10-21T21:08:48.667Z,11.70
2022-10-21T21:11:21.088Z,11.32
2022-10-21T21:13:48.089Z,10.57
2022-10-21T21:16:16.262Z,10.68
2022-10-21T21:18:49.331Z,10.80
2022-10-21T21:21:18.133Z,10.23
2022-10-21T21:23:45.864Z,10.80
2022-10-21T21:26:18.703Z,10.88
2022-10-21T21:28:46.028Z,11.00
2022-10-21T21:31:14.060Z,11.02
2022-10-21T21:33:42.434Z,11.85
2022-10-21T21:36:09.525Z,11.77
2022-10-21T21:38:36.120Z,11.80
2022-10-21T21:41:05.554Z,12.60
2022-10-21T21:43:36.640Z,11.90
2022-10-21T21:46:03.620Z,11.82
2022-10-21T21:48:34.117Z,11.68
2022-10-21T21:51:02.048Z,11.73
2022-10-21T21:53:28.661Z,11.45
2022-10-21T21:55:57.707Z,11.88
2022-10-21T21:58:27.505Z,12.10
2022-10-21T22:00:54.191Z,11.40
2022-10-21T22:03:21.654Z,11.40
2022-10-21T22:05:48.507Z,9.48
2022-10-21T22:08:15.082Z,10.23
2022-10-21T22:10:42.507Z,9.65
2022-10-21T22:13:09.248Z,10.30
2022-10-21T22:15:47.741Z,10.82
2022-10-21T22:18:14.862Z,9.75
2022-10-21T22:20:41.470Z,9.93
2022-10-21T22:23:08.046Z,10.02
2022-10-21T22:25:35.086Z,10.70
2022-10-21T22:28:01.695Z,10.82
2022-10-21T22:30:28.480Z,10.38
2022-10-21T22:32:55.036Z,10.70
2022-10-21T22:35:21.572Z,10.88
2022-10-21T22:37:48.140Z,11.43
2022-10-21T22:40:14.719Z,11.55
2022-10-21T22:42:41.335Z,12.00
2022-10-21T22:45:08.231Z,11.57
2022-10-21T22:47:34.881Z,11.20
2022-10-21T22:50:01.474Z,11.38
2022-10-21T22:52:28.056Z,11.35
2022-10-21T22:54:54.572Z,11.77
2022-10-21T22:57:21.135Z,11.20
2022-10-21T22:59:52.830Z,11.20
2022-10-21T23:02:19.988Z,11.25
2022-10-21T23:04:46.558Z,12.65
2022-10-21T23:07:13.109Z,11.77
2022-10-21T23:09:39.758Z,13.88
2022-10-21T23:12:06.390Z,11.70
2022-10-21T23:14:33.021Z,10.43
2022-10-21T23:16:59.598Z,10.85
2022-10-21T23:19:26.218Z,11.05
2022-10-21T23:21:52.894Z,12.30
2022-10-21T23:24:19.512Z,10.93
2022-10-21T23:26:46.143Z,11.38
2022-10-21T23:29:12.715Z,11.23
2022-10-21T23:31:39.435Z,11.20
2022-10-21T23:34:06.101Z,11.52
2022-10-21T23:36:34.522Z,11.02
2022-10-21T23:39:01.858Z,9.88
2022-10-21T23:41:28.786Z,10.70
2022-10-21T23:43:55.410Z,10.30
2022-10-21T23:46:22.498Z,10.90
2022-10-21T23:48:49.145Z,10.52
2022-10-21T23:51:15.691Z,9.70
2022-10-21T23:53:42.267Z,9.95
2022-10-21T23:56:09.002Z,9.77
2022-10-21T23:58:35.647Z,11.00
